Time;durP1;ratioP1;P1;durP2;ratioP2;P2;SDS_P1;SDS_P2;PMS_P1;PMS_P2;Temp;Humidity;BMP_temperature;BMP_pressure;BME280_temperature;BME280_humidity;BME280_pressure;Samples;Min_cycle;Max_cycle;Signal;HPM_P1;HPM_P2
2021/12/25 00:01:05;;;;;;;3.70;2.85;;;6.20;99.90;;;;;;5033690;28;20248;-68
2021/12/25 00:03:35;;;;;;;3.40;3.10;;;6.20;99.90;;;;;;5042565;28;20239;-69
2021/12/25 00:06:04;;;;;;;3.42;2.88;;;6.20;99.90;;;;;;5048884;28;20248;-67
2021/12/25 00:08:33;;;;;;;3.10;2.80;;;6.20;99.90;;;;;;5042518;28;20197;-67
2021/12/25 00:11:04;;;;;;;4.43;3.13;;;6.20;99.90;;;;;;5048749;28;20217;-68
2021/12/25 00:13:33;;;;;;;5.07;3.33;;;6.20;99.90;;;;;;5049229;28;20200;-67
2021/12/25 00:16:01;;;;;;;3.80;3.45;;;6.20;99.90;;;;;;5044327;28;20216;-69
2021/12/25 00:18:29;;;;;;;3.85;2.80;;;6.20;99.90;;;;;;5049157;28;20291;-69
2021/12/25 00:21:00;;;;;;;3.53;3.15;;;6.20;99.90;;;;;;5060398;28;20221;-66
2021/12/25 00:23:28;;;;;;;4.22;2.70;;;6.20;99.90;;;;;;5035699;28;20204;-68
2021/12/25 00:26:00;;;;;;;4.03;3.13;;;6.20;99.90;;;;;;5046501;28;20228;-68
2021/12/25 00:28:54;;;;;;;3.10;2.80;;;6.20;99.90;;;;;;5063870;28;20622;-67
2021/12/25 00:31:30;;;;;;;3.35;3.05;;;6.20;99.90;;;;;;5062461;28;20220;-67
2021/12/25 00:34:01;;;;;;;3.20;2.90;;;6.20;99.90;;;;;;5048624;28;20216;-68
2021/12/25 00:36:30;;;;;;;4.50;3.00;;;6.20;99.90;;;;;;5048067;28;20220;-67
2021/12/25 00:38:58;;;;;;;2.80;2.60;;;6.20;99.90;;;;;;5035456;28;20286;-66
2021/12/25 00:41:26;;;;;;;3.63;2.75;;;6.20;99.90;;;;;;5039137;28;20216;-67
2021/12/25 00:43:55;;;;;;;3.38;3.08;;;6.20;99.90;;;;;;5063851;28;20211;-68
2021/12/25 00:46:23;;;;;;;3.58;2.83;;;6.20;99.90;;;;;;5024988;28;20299;-68
2021/12/25 00:48:52;;;;;;;3.33;3.00;;;6.20;99.90;;;;;;5047783;28;20617;-68
2021/12/25 00:51:20;;;;;;;5.22;3.20;;;6.20;99.90;;;;;;5046572;28;20706;-67
2021/12/25 00:53:51;;;;;;;3.83;2.72;;;6.20;99.90;;;;;;5046297;28;20216;-67
2021/12/25 00:56:19;;;;;;;4.18;2.83;;;6.20;99.90;;;;;;5027958;28;20302;-67
2021/12/25 00:58:48;;;;;;;4.05;3.65;;;6.20;99.90;;;;;;5044565;28;20200;-66
2021/12/25 01:01:16;;;;;;;4.07;3.15;;;6.20;99.90;;;;;;5045164;28;20219;-69
2021/12/25 01:03:47;;;;;;;3.58;2.95;;;6.20;99.90;;;;;;5062949;28;20299;-67
2021/12/25 01:06:17;;;;;;;4.00;2.92;;;6.20;99.90;;;;;;5045958;28;20254;-67
2021/12/25 01:08:45;;;;;;;4.20;3.35;;;6.20;99.90;;;;;;5051631;28;20196;-68
2021/12/25 01:11:23;;;;;;;4.05;2.92;;;6.20;99.90;;;;;;5046286;28;20327;-67
2021/12/25 01:13:57;;;;;;;3.53;2.88;;;6.20;99.90;;;;;;5046145;28;20215;-66
2021/12/25 01:17:09;;;;;;;4.55;3.00;;;6.20;99.90;;;;;;5031370;28;20322;-67
2021/12/25 01:20:07;;;;;;;3.55;3.10;;;6.20;99.90;;;;;;5059338;28;20226;-68
2021/12/25 01:25:43;;;;;;;4.10;3.65;;;6.20;99.90;;;;;;5039196;28;20239;-68
2021/12/25 01:31:05;;;;;;;3.80;3.50;;;6.20;99.90;;;;;;4964706;28;20896;-68
2021/12/25 01:34:09;;;;;;;4.47;3.33;;;6.20;99.90;;;;;;5026433;28;20299;-69
2021/12/25 01:37:03;;;;;;;4.28;3.10;;;6.20;99.90;;;;;;5046917;28;20220;-68
2021/12/25 01:39:58;;;;;;;3.13;2.70;;;6.20;99.90;;;;;;5046177;28;20224;-68
2021/12/25 01:48:45;;;;;;;4.85;4.38;;;6.20;99.90;;;;;;5045725;28;20666;-66
2021/12/25 01:51:13;;;;;;;3.63;3.13;;;6.20;99.90;;;;;;5062299;28;20227;-67
2021/12/25 01:53:42;;;;;;;3.58;3.25;;;6.20;99.90;;;;;;5059538;28;20221;-69
2021/12/25 01:56:10;;;;;;;3.72;3.42;;;6.20;99.90;;;;;;5035057;28;20210;-67
2021/12/25 01:58:38;;;;;;;3.28;3.08;;;6.20;99.90;;;;;;5046136;28;20197;-68
2021/12/25 02:01:09;;;;;;;2.55;2.35;;;6.20;99.90;;;;;;5040330;28;20216;-67
2021/12/25 02:03:39;;;;;;;3.78;3.10;;;6.20;99.90;;;;;;5047257;28;20209;-69
2021/12/25 02:06:10;;;;;;;3.53;3.20;;;6.20;99.90;;;;;;5045034;28;20686;-69
2021/12/25 02:08:43;;;;;;;3.40;2.85;;;6.20;99.90;;;;;;5042482;28;20274;-67
2021/12/25 02:11:12;;;;;;;3.22;2.92;;;6.30;99.90;;;;;;5058343;28;20707;-66
2021/12/25 02:13:41;;;;;;;4.00;3.50;;;6.20;99.90;;;;;;5038120;28;20221;-67
2021/12/25 02:16:49;;;;;;;3.35;2.70;;;6.20;99.90;;;;;;5056823;28;20301;-69
2021/12/25 02:19:46;;;;;;;3.47;3.13;;;6.20;99.90;;;;;;5045258;28;20210;-68
2021/12/25 02:22:33;;;;;;;3.40;3.08;;;6.30;99.90;;;;;;5048231;28;20202;-69
2021/12/25 02:25:22;;;;;;;3.30;3.00;;;6.20;99.90;;;;;;5048996;28;20902;-68
2021/12/25 02:28:11;;;;;;;3.05;2.80;;;6.30;99.90;;;;;;5064834;28;20266;-66
2021/12/25 02:31:01;;;;;;;3.90;3.58;;;6.20;99.90;;;;;;5044789;28;20356;-68
2021/12/25 02:33:30;;;;;;;3.55;3.15;;;6.20;99.90;;;;;;5049665;28;20244;-67
2021/12/25 02:36:00;;;;;;;3.28;2.72;;;6.20;99.90;;;;;;5065338;28;20729;-69
2021/12/25 02:38:29;;;;;;;4.20;3.90;;;6.20;99.90;;;;;;5062985;28;20683;-68
2021/12/25 02:40:57;;;;;;;3.00;2.33;;;6.20;99.90;;;;;;5045125;28;20216;-67
2021/12/25 02:43:26;;;;;;;2.90;2.70;;;6.20;99.90;;;;;;5047488;28;20216;-68
2021/12/25 02:45:55;;;;;;;3.55;3.13;;;6.30;99.90;;;;;;5044805;28;20266;-69
2021/12/25 02:48:24;;;;;;;3.90;3.50;;;6.20;99.90;;;;;;5051458;28;20228;-67
2021/12/25 02:50:52;;;;;;;3.08;2.72;;;6.20;99.90;;;;;;5048932;28;20224;-66
2021/12/25 02:53:23;;;;;;;3.50;3.20;;;6.30;99.90;;;;;;5052837;28;20229;-67
2021/12/25 02:55:51;;;;;;;4.78;3.55;;;6.30;99.90;;;;;;5031640;28;20212;-68
2021/12/25 02:58:23;;;;;;;3.55;2.90;;;6.20;99.90;;;;;;5066117;28;20221;-68
2021/12/25 03:00:54;;;;;;;4.50;3.50;;;6.20;99.90;;;;;;5060889;28;20216;-68
2021/12/25 03:03:23;;;;;;;2.47;2.20;;;6.30;99.90;;;;;;5050402;28;20581;-67
2021/12/25 03:05:51;;;;;;;3.78;2.80;;;6.20;99.90;;;;;;5040396;28;20312;-68
2021/12/25 03:08:21;;;;;;;3.60;3.10;;;6.30;99.90;;;;;;5042173;28;20201;-69
2021/12/25 03:10:55;;;;;;;2.60;2.40;;;6.20;99.90;;;;;;5048765;28;20311;-68
2021/12/25 03:13:34;;;;;;;3.72;3.00;;;6.20;99.90;;;;;;5050967;28;20213;-67
2021/12/25 03:16:07;;;;;;;3.85;3.13;;;6.20;99.90;;;;;;5046039;28;20227;-68
2021/12/25 03:18:43;;;;;;;3.50;3.20;;;6.30;99.90;;;;;;5050423;28;20647;-69
2021/12/25 03:21:12;;;;;;;3.20;2.90;;;6.30;99.90;;;;;;5062064;28;20402;-68
2021/12/25 03:23:42;;;;;;;3.13;2.83;;;6.30;99.90;;;;;;5061161;28;20212;-68
2021/12/25 03:26:11;;;;;;;3.83;3.25;;;6.30;99.90;;;;;;5061576;28;20229;-68
2021/12/25 03:28:43;;;;;;;2.85;2.47;;;6.30;99.90;;;;;;5035420;28;20261;-67
2021/12/25 03:31:16;;;;;;;3.55;2.92;;;6.30;99.90;;;;;;5037611;28;20209;-68
2021/12/25 03:33:47;;;;;;;3.47;3.00;;;6.20;99.90;;;;;;5041043;28;20244;-68
2021/12/25 03:36:15;;;;;;;4.60;4.20;;;6.30;99.90;;;;;;5029327;28;20240;-67
2021/12/25 03:38:45;;;;;;;4.50;3.30;;;6.30;99.90;;;;;;5048499;28;20239;-66
2021/12/25 03:41:16;;;;;;;3.60;3.05;;;6.30;99.90;;;;;;5040807;28;20221;-69
2021/12/25 03:43:44;;;;;;;3.92;3.63;;;6.30;99.90;;;;;;5065017;28;20212;-68
2021/12/25 03:46:14;;;;;;;3.70;3.20;;;6.30;99.90;;;;;;5055955;28;20223;-68
2021/12/25 03:49:00;;;;;;;3.60;3.30;;;6.30;99.90;;;;;;5044562;28;20792;-69
2021/12/25 04:00:01;;;;;;;3.60;3.30;;;6.30;99.90;;;;;;5045801;28;20281;-70
2021/12/25 04:02:37;;;;;;;3.13;2.45;;;6.30;99.90;;;;;;5049119;28;20808;-69
2021/12/25 04:05:13;;;;;;;3.35;3.05;;;6.30;99.90;;;;;;5037431;28;20224;-70
2021/12/25 04:07:59;;;;;;;3.67;3.38;;;6.20;99.90;;;;;;5047882;28;20203;-69
2021/12/25 04:10:32;;;;;;;4.03;3.63;;;6.30;99.90;;;;;;5054356;28;20239;-68
2021/12/25 04:13:01;;;;;;;3.15;2.75;;;6.30;99.90;;;;;;5028113;28;20730;-69
2021/12/25 04:15:29;;;;;;;3.33;3.05;;;6.30;99.90;;;;;;5029675;28;20220;-68
2021/12/25 04:17:57;;;;;;;3.15;2.90;;;6.30;99.90;;;;;;5028325;28;20236;-69
2021/12/25 04:20:27;;;;;;;3.70;3.22;;;6.30;99.90;;;;;;5032073;28;20248;-69
2021/12/25 04:22:59;;;;;;;4.10;2.80;;;6.30;99.90;;;;;;5055444;28;20215;-68
2021/12/25 04:25:32;;;;;;;3.22;2.92;;;6.30;99.90;;;;;;5038095;28;20224;-68
2021/12/25 04:28:08;;;;;;;3.13;2.80;;;6.30;99.90;;;;;;5033422;28;20197;-69
2021/12/25 04:30:46;;;;;;;3.50;3.20;;;6.30;99.90;;;;;;5040651;28;20219;-68
2021/12/25 04:42:38;;;;;;;4.10;3.72;;;6.30;99.90;;;;;;5061094;28;20308;-67
2021/12/25 04:50:24;;;;;;;2.83;2.58;;;6.30;99.90;;;;;;5043975;28;20686;-68
2021/12/25 05:04:21;;;;;;;4.15;3.40;;;6.30;99.90;;;;;;5048122;28;20271;-67
2021/12/25 05:07:02;;;;;;;4.72;3.00;;;6.30;99.90;;;;;;5038901;28;20714;-67
2021/12/25 05:09:31;;;;;;;3.38;3.08;;;6.30;99.90;;;;;;5060994;28;20196;-67
2021/12/25 05:11:59;;;;;;;3.88;3.58;;;6.30;99.90;;;;;;5046687;28;21003;-68
2021/12/25 05:14:28;;;;;;;3.88;3.40;;;6.30;99.90;;;;;;5045498;28;20217;-68
2021/12/25 05:16:57;;;;;;;3.30;3.00;;;6.30;99.90;;;;;;5062493;28;20216;-68
2021/12/25 05:19:25;;;;;;;3.67;3.20;;;6.30;99.90;;;;;;5046635;28;20201;-69
2021/12/25 05:21:54;;;;;;;3.88;3.40;;;6.30;99.90;;;;;;5060477;28;20229;-67
2021/12/25 05:24:23;;;;;;;3.67;3.30;;;6.30;99.90;;;;;;5026745;28;20221;-67
2021/12/25 05:26:57;;;;;;;4.43;3.70;;;6.30;99.90;;;;;;5057879;28;20222;-68
2021/12/25 05:29:31;;;;;;;4.05;3.65;;;6.30;99.90;;;;;;5029881;28;20276;-70
2021/12/25 05:31:59;;;;;;;3.70;3.40;;;6.30;99.90;;;;;;5046198;28;20209;-69
2021/12/25 05:34:46;;;;;;;4.82;3.70;;;6.30;99.90;;;;;;5046890;28;20201;-69
2021/12/25 05:37:23;;;;;;;3.95;3.55;;;6.30;99.90;;;;;;5046160;28;20715;-70
2021/12/25 05:40:12;;;;;;;5.22;4.72;;;6.30;99.90;;;;;;5046991;28;20231;-68
2021/12/25 05:42:44;;;;;;;3.78;3.47;;;6.30;99.90;;;;;;5046057;28;20326;-68
2021/12/25 05:45:14;;;;;;;4.82;3.53;;;6.30;99.90;;;;;;5061104;28;20312;-67
2021/12/25 05:47:54;;;;;;;4.43;3.65;;;6.30;99.90;;;;;;5061014;28;20193;-68
2021/12/25 05:50:45;;;;;;;4.68;4.28;;;6.30;99.90;;;;;;5008314;28;20229;-68
2021/12/25 05:53:31;;;;;;;4.55;3.95;;;6.30;99.90;;;;;;5051505;28;20366;-68
2021/12/25 05:56:18;;;;;;;6.22;4.40;;;6.30;99.90;;;;;;5047003;28;20231;-67
2021/12/25 05:58:58;;;;;;;4.40;4.00;;;6.30;99.90;;;;;;5027696;28;20208;-67
2021/12/25 06:01:37;;;;;;;4.85;4.20;;;6.30;99.90;;;;;;5047402;28;20232;-69
2021/12/25 06:04:06;;;;;;;5.35;3.97;;;6.30;99.90;;;;;;5028317;28;20216;-68
2021/12/25 06:06:36;;;;;;;4.95;3.97;;;6.30;99.90;;;;;;5035581;28;20224;-67
2021/12/25 06:09:07;;;;;;;3.88;3.25;;;6.30;99.90;;;;;;5044976;28;20192;-67
2021/12/25 06:11:35;;;;;;;5.80;4.90;;;6.30;99.90;;;;;;5045693;28;20282;-66
2021/12/25 06:14:09;;;;;;;5.15;4.55;;;6.30;99.90;;;;;;5026504;28;21017;-67
2021/12/25 06:16:49;;;;;;;5.32;4.82;;;6.30;99.90;;;;;;5027435;28;20231;-68
2021/12/25 06:19:43;;;;;;;4.75;4.22;;;6.30;99.90;;;;;;5026402;28;20712;-66
2021/12/25 06:22:32;;;;;;;5.50;4.63;;;6.30;99.90;;;;;;5023927;28;20804;-69
2021/12/25 06:25:19;;;;;;;4.80;4.15;;;6.30;99.90;;;;;;5025495;28;20279;-68
2021/12/25 06:27:56;;;;;;;4.55;3.97;;;6.30;99.90;;;;;;5039086;28;20195;-69
2021/12/25 06:30:29;;;;;;;5.40;4.88;;;6.30;99.90;;;;;;5055239;28;20223;-68
2021/12/25 06:33:01;;;;;;;3.60;3.30;;;6.30;99.90;;;;;;5062792;28;20287;-67
2021/12/25 06:36:05;;;;;;;4.72;4.00;;;6.30;99.90;;;;;;5046892;28;20789;-67
2021/12/25 06:39:02;;;;;;;4.80;4.32;;;6.30;99.90;;;;;;5038685;28;20208;-67
2021/12/25 06:41:50;;;;;;;5.30;4.80;;;6.30;99.90;;;;;;5045694;28;20223;-67
2021/12/25 06:44:20;;;;;;;4.40;4.00;;;6.30;99.90;;;;;;5060749;28;20639;-67
2021/12/25 06:46:50;;;;;;;4.10;3.80;;;6.30;99.90;;;;;;5045494;28;20224;-69
2021/12/25 06:49:20;;;;;;;5.03;4.55;;;6.30;99.90;;;;;;5058883;28;20827;-68
2021/12/25 06:52:15;;;;;;;6.43;4.43;;;6.30;99.90;;;;;;5039444;28;20227;-68
2021/12/25 06:55:07;;;;;;;4.53;4.13;;;6.30;99.90;;;;;;5020837;28;20926;-68
2021/12/25 06:58:02;;;;;;;4.82;4.10;;;6.30;99.90;;;;;;5060363;28;20324;-67
2021/12/25 07:00:31;;;;;;;4.85;4.40;;;6.30;99.90;;;;;;5033190;28;20227;-67
2021/12/25 07:03:02;;;;;;;4.60;4.20;;;6.30;99.90;;;;;;5039679;28;20321;-68
2021/12/25 07:06:04;;;;;;;4.75;4.15;;;6.30;99.90;;;;;;5046987;28;20304;-67
2021/12/25 07:08:47;;;;;;;4.20;3.80;;;6.30;99.90;;;;;;5059297;28;20755;-67
2021/12/25 07:11:31;;;;;;;5.07;4.57;;;6.30;99.90;;;;;;5067283;27;20225;-68
2021/12/25 07:14:21;;;;;;;5.90;4.40;;;6.30;99.90;;;;;;5064474;28;20410;-66
2021/12/25 07:16:49;;;;;;;4.63;4.13;;;6.30;99.90;;;;;;5059439;28;20220;-67
2021/12/25 07:19:42;;;;;;;4.13;3.72;;;6.30;99.90;;;;;;5056047;28;20339;-68
2021/12/25 07:22:33;;;;;;;5.18;4.70;;;6.30;99.90;;;;;;5068040;28;20188;-67
2021/12/25 07:25:16;;;;;;;4.63;4.22;;;6.30;99.90;;;;;;5056676;28;20211;-68
2021/12/25 07:27:47;;;;;;;4.00;3.60;;;6.30;99.90;;;;;;5069460;28;20198;-66
2021/12/25 07:30:15;;;;;;;5.05;4.03;;;6.20;99.90;;;;;;5060562;28;20587;-68
2021/12/25 07:32:43;;;;;;;4.13;3.72;;;6.30;99.90;;;;;;5061293;28;20673;-69
2021/12/25 07:35:11;;;;;;;6.18;4.90;;;6.30;99.90;;;;;;5069341;28;20592;-67
2021/12/25 07:37:41;;;;;;;5.47;4.90;;;6.20;99.90;;;;;;5069893;28;20220;-68
2021/12/25 07:40:10;;;;;;;5.90;4.45;;;6.30;99.90;;;;;;5068704;28;20243;-67
2021/12/25 07:42:38;;;;;;;5.65;5.15;;;6.30;99.90;;;;;;5069345;28;20192;-67
2021/12/25 07:45:20;;;;;;;4.50;4.10;;;6.30;99.90;;;;;;5061188;28;20215;-66
2021/12/25 07:47:56;;;;;;;5.35;4.38;;;6.30;99.90;;;;;;5069916;28;20679;-67
2021/12/25 07:50:24;;;;;;;4.93;4.18;;;6.30;99.90;;;;;;5069346;28;20224;-66
2021/12/25 07:52:54;;;;;;;5.65;5.10;;;6.30;99.90;;;;;;5066059;28;20236;-66
2021/12/25 07:55:23;;;;;;;4.70;4.07;;;6.30;99.90;;;;;;5053785;28;20224;-66
2021/12/25 07:57:51;;;;;;;4.70;4.20;;;6.30;99.90;;;;;;5078471;28;20188;-66
2021/12/25 08:00:19;;;;;;;5.25;4.70;;;6.20;99.90;;;;;;5056562;28;20306;-66
2021/12/25 08:02:48;;;;;;;5.68;4.25;;;6.30;99.90;;;;;;5054428;28;20219;-66
2021/12/25 08:05:16;;;;;;;5.03;4.53;;;6.30;99.90;;;;;;5069477;28;20693;-67
2021/12/25 08:07:44;;;;;;;5.25;4.82;;;6.30;99.90;;;;;;5067264;28;20484;-66
2021/12/25 08:10:17;;;;;;;5.30;4.90;;;6.30;99.90;;;;;;5067815;28;20223;-67
2021/12/25 08:12:47;;;;;;;4.82;4.32;;;6.30;99.90;;;;;;5069912;28;20248;-67
2021/12/25 08:15:17;;;;;;;4.40;4.00;;;6.30;99.90;;;;;;5049282;28;20228;-67
2021/12/25 08:17:46;;;;;;;4.50;3.92;;;6.30;99.90;;;;;;5055349;28;20669;-68
2021/12/25 08:20:34;;;;;;;3.92;3.47;;;6.30;99.90;;;;;;5069038;28;20231;-67
2021/12/25 08:23:40;;;;;;;4.50;4.10;;;6.20;99.90;;;;;;5042350;28;20601;-68
2021/12/25 08:26:29;;;;;;;4.70;4.28;;;6.30;99.90;;;;;;5026125;28;20229;-67
2021/12/25 08:29:15;;;;;;;5.28;4.68;;;6.30;99.90;;;;;;5047143;28;20203;-66
2021/12/25 08:32:02;;;;;;;5.28;4.47;;;6.20;99.90;;;;;;5064194;28;20216;-66
2021/12/25 08:34:56;;;;;;;4.30;3.90;;;6.30;99.90;;;;;;5056619;28;20215;-66
2021/12/25 08:37:28;;;;;;;5.55;4.60;;;6.30;99.90;;;;;;5047879;28;20200;-67
2021/12/25 08:40:00;;;;;;;5.40;4.90;;;6.30;99.90;;;;;;5036817;28;20585;-68
2021/12/25 08:42:29;;;;;;;4.55;4.20;;;6.20;99.90;;;;;;5042420;28;20611;-66
2021/12/25 08:45:06;;;;;;;4.72;4.00;;;6.20;99.90;;;;;;5047237;28;20224;-66
2021/12/25 08:47:37;;;;;;;4.82;4.35;;;6.30;99.90;;;;;;5057653;28;20666;-68
2021/12/25 08:50:08;;;;;;;4.47;3.80;;;6.30;99.90;;;;;;5043506;28;20767;-68
2021/12/25 08:52:36;;;;;;;3.95;3.65;;;6.30;99.90;;;;;;5047524;28;20868;-66
2021/12/25 08:55:06;;;;;;;5.53;4.65;;;6.20;99.90;;;;;;5045965;28;20224;-66
2021/12/25 08:57:37;;;;;;;4.10;3.70;;;6.30;99.90;;;;;;5049083;28;20204;-66
2021/12/25 09:00:07;;;;;;;4.18;3.35;;;6.30;99.90;;;;;;5046845;28;20281;-67
2021/12/25 09:02:35;;;;;;;4.20;3.80;;;6.30;99.90;;;;;;5049263;28;20207;-65
2021/12/25 09:05:04;;;;;;;3.95;3.65;;;6.20;99.90;;;;;;5048246;28;20236;-66
2021/12/25 09:07:33;;;;;;;4.65;4.00;;;6.30;99.90;;;;;;5047708;28;20196;-66
2021/12/25 09:10:01;;;;;;;4.50;3.65;;;6.30;99.90;;;;;;5039163;28;20221;-68
2021/12/25 09:12:29;;;;;;;4.15;3.70;;;6.20;99.90;;;;;;5033243;28;20192;-67
2021/12/25 09:14:59;;;;;;;4.20;3.80;;;6.20;99.90;;;;;;5042273;28;20220;-68
2021/12/25 09:17:27;;;;;;;3.45;3.15;;;6.20;99.90;;;;;;5031964;28;20386;-66
2021/12/25 09:19:55;;;;;;;4.97;4.47;;;6.20;99.90;;;;;;5030148;28;20711;-67
2021/12/25 09:22:23;;;;;;;3.95;3.60;;;6.20;99.90;;;;;;5048589;28;20238;-67
2021/12/25 09:24:51;;;;;;;4.07;3.72;;;6.20;99.90;;;;;;5047276;28;20200;-66
2021/12/25 09:27:19;;;;;;;3.75;3.45;;;6.20;99.90;;;;;;5062945;28;20181;-68
2021/12/25 09:29:48;;;;;;;4.60;3.97;;;6.20;99.90;;;;;;5041456;28;20280;-68
2021/12/25 09:32:18;;;;;;;4.25;3.95;;;6.20;99.90;;;;;;5028393;28;20197;-66
2021/12/25 09:34:46;;;;;;;3.58;3.25;;;6.20;99.90;;;;;;5034915;28;20215;-66
2021/12/25 09:37:14;;;;;;;4.30;3.90;;;6.20;99.90;;;;;;5047861;28;20200;-66
2021/12/25 09:39:42;;;;;;;4.00;3.60;;;6.20;99.90;;;;;;5033807;28;20212;-67
2021/12/25 09:42:10;;;;;;;4.82;4.32;;;6.20;99.90;;;;;;5047853;28;20195;-66
2021/12/25 09:44:39;;;;;;;3.85;3.55;;;6.30;99.90;;;;;;5042110;28;20224;-67
2021/12/25 09:47:08;;;;;;;3.92;3.53;;;6.20;99.90;;;;;;5027895;28;20200;-66
2021/12/25 09:49:37;;;;;;;4.55;3.88;;;6.20;99.90;;;;;;5032001;28;20211;-67
2021/12/25 09:52:06;;;;;;;3.30;3.00;;;6.30;99.90;;;;;;5029482;28;20347;-66
2021/12/25 09:54:34;;;;;;;3.88;3.40;;;6.20;99.90;;;;;;5039109;28;20311;-66
2021/12/25 09:57:03;;;;;;;3.70;3.40;;;6.20;99.90;;;;;;5047175;28;20217;-66
2021/12/25 09:59:31;;;;;;;4.10;3.63;;;6.20;99.90;;;;;;5044512;28;20193;-68
2021/12/25 10:02:00;;;;;;;4.10;3.20;;;6.20;99.90;;;;;;5046102;28;20316;-68
2021/12/25 10:04:37;;;;;;;3.70;3.40;;;6.20;99.90;;;;;;5047799;28;20216;-67
2021/12/25 10:07:24;;;;;;;3.38;3.08;;;6.20;99.90;;;;;;5046556;28;20693;-66
2021/12/25 10:09:58;;;;;;;4.32;3.92;;;6.20;99.90;;;;;;5033053;28;20198;-67
2021/12/25 10:12:35;;;;;;;3.80;3.30;;;6.20;99.90;;;;;;5036033;28;20200;-67
2021/12/25 10:15:08;;;;;;;4.68;3.90;;;6.20;99.90;;;;;;5040107;28;20212;-66
2021/12/25 10:17:44;;;;;;;3.72;3.42;;;6.20;99.90;;;;;;5042104;28;20254;-66
2021/12/25 10:20:17;;;;;;;3.00;2.80;;;6.20;99.90;;;;;;5029104;28;20240;-67
2021/12/25 10:23:06;;;;;;;3.50;3.20;;;6.20;99.90;;;;;;5038872;28;20316;-66
2021/12/25 10:25:38;;;;;;;3.28;2.97;;;6.20;99.90;;;;;;5037972;28;20694;-66
2021/12/25 10:28:08;;;;;;;3.42;3.10;;;6.20;99.90;;;;;;5062622;28;20196;-66
2021/12/25 10:30:49;;;;;;;2.85;2.53;;;6.20;99.90;;;;;;5046931;28;20228;-66
2021/12/25 10:33:26;;;;;;;3.35;3.05;;;6.20;99.90;;;;;;5047141;28;20225;-67
2021/12/25 10:35:55;;;;;;;3.05;2.78;;;6.20;99.90;;;;;;5027838;28;20339;-67
2021/12/25 10:38:25;;;;;;;2.80;2.58;;;6.20;99.90;;;;;;5045798;28;20193;-67
2021/12/25 10:41:19;;;;;;;4.03;3.15;;;6.20;99.90;;;;;;5047426;28;20212;-66
2021/12/25 10:43:50;;;;;;;2.65;2.45;;;6.30;99.90;;;;;;5043265;28;20713;-66
2021/12/25 10:46:18;;;;;;;3.40;3.10;;;6.20;99.90;;;;;;5034444;28;20260;-66
2021/12/25 10:48:47;;;;;;;3.60;3.30;;;6.30;99.90;;;;;;5050839;28;20295;-66
2021/12/25 10:51:27;;;;;;;3.53;2.88;;;6.30;99.90;;;;;;5050592;28;20220;-66
2021/12/25 10:53:57;;;;;;;2.50;2.20;;;6.20;99.90;;;;;;5049000;28;20205;-67
2021/12/25 10:56:35;;;;;;;3.20;2.90;;;6.30;99.90;;;;;;5030742;28;20236;-67
2021/12/25 10:59:05;;;;;;;2.80;2.60;;;6.30;99.90;;;;;;5036268;28;20810;-68
2021/12/25 11:01:40;;;;;;;3.90;2.90;;;6.20;99.90;;;;;;5050058;28;20323;-69
2021/12/25 11:04:30;;;;;;;2.13;1.92;;;6.20;99.90;;;;;;5050688;28;20220;-66
2021/12/25 11:07:11;;;;;;;3.10;2.80;;;6.20;99.90;;;;;;5050434;28;20224;-66
2021/12/25 11:09:41;;;;;;;3.05;2.70;;;6.20;99.90;;;;;;5035208;28;20201;-68
2021/12/25 11:12:17;;;;;;;2.50;2.30;;;6.20;99.90;;;;;;5045664;28;20231;-69
2021/12/25 11:14:50;;;;;;;2.60;2.40;;;6.20;99.90;;;;;;5044502;28;20204;-66
2021/12/25 11:17:25;;;;;;;2.60;2.40;;;6.20;99.90;;;;;;5031059;28;20240;-67
2021/12/25 11:20:00;;;;;;;2.70;2.50;;;6.20;99.90;;;;;;5044463;28;20196;-67
2021/12/25 11:22:44;;;;;;;3.05;2.75;;;6.20;99.90;;;;;;5050617;28;20216;-68
2021/12/25 11:25:15;;;;;;;2.40;2.20;;;6.20;99.90;;;;;;5050173;28;20223;-66
2021/12/25 11:27:43;;;;;;;2.83;2.63;;;6.20;99.90;;;;;;5050670;28;20215;-67
2021/12/25 11:30:12;;;;;;;2.50;2.20;;;6.20;99.90;;;;;;5057435;28;20231;-66
2021/12/25 11:32:40;;;;;;;2.25;2.08;;;6.20;99.90;;;;;;5042855;28;20208;-67
2021/12/25 11:35:10;;;;;;;2.75;2.20;;;6.20;99.90;;;;;;5046328;28;20218;-66
2021/12/25 11:37:39;;;;;;;1.95;1.83;;;6.20;99.90;;;;;;5050904;28;20200;-67
2021/12/25 11:40:10;;;;;;;2.40;2.20;;;6.20;99.90;;;;;;5038891;28;20283;-66
2021/12/25 11:42:45;;;;;;;3.08;1.88;;;6.20;99.90;;;;;;5050183;28;20255;-66
2021/12/25 11:45:16;;;;;;;2.00;1.90;;;6.20;99.90;;;;;;5042026;28;20220;-66
2021/12/25 11:47:46;;;;;;;2.10;1.88;;;6.20;99.90;;;;;;5029695;28;20205;-66
2021/12/25 11:50:17;;;;;;;1.88;1.70;;;6.20;99.90;;;;;;5045483;28;20705;-66
2021/12/25 11:53:03;;;;;;;2.05;1.85;;;6.20;99.90;;;;;;5047795;28;20213;-68
2021/12/25 11:58:39;;;;;;;2.22;2.03;;;6.20;99.90;;;;;;5017364;28;20292;-68
2021/12/25 12:01:30;;;;;;;1.75;1.65;;;6.20;99.90;;;;;;5047755;28;20239;-65
2021/12/25 12:04:03;;;;;;;2.17;1.95;;;6.20;99.90;;;;;;5050677;28;20934;-66
2021/12/25 12:06:58;;;;;;;2.38;2.20;;;6.20;99.90;;;;;;5061097;28;20224;-67
2021/12/25 12:09:55;;;;;;;1.73;1.63;;;6.20;99.90;;;;;;5035231;28;20193;-66
2021/12/25 12:12:42;;;;;;;1.52;1.42;;;6.20;99.90;;;;;;5030151;28;20311;-68
2021/12/25 12:15:47;;;;;;;2.10;1.85;;;6.20;99.90;;;;;;5028284;28;22037;-66
2021/12/25 12:18:41;;;;;;;2.08;1.88;;;6.20;99.90;;;;;;5049320;28;20557;-66
2021/12/25 12:21:40;;;;;;;1.52;1.42;;;6.20;99.90;;;;;;5049102;28;20709;-67
2021/12/25 12:24:42;;;;;;;1.75;1.65;;;6.20;99.90;;;;;;5046925;28;20204;-67
2021/12/25 12:27:11;;;;;;;2.20;2.00;;;6.20;99.90;;;;;;5029344;28;20709;-66
2021/12/25 12:29:49;;;;;;;1.83;1.67;;;6.20;99.90;;;;;;5045707;28;20196;-66
2021/12/25 12:32:43;;;;;;;2.25;1.75;;;6.20;99.90;;;;;;5046277;28;20663;-67
2021/12/25 12:35:31;;;;;;;1.70;1.60;;;6.20;99.90;;;;;;5048855;28;20784;-66
2021/12/25 12:38:29;;;;;;;1.98;1.77;;;6.20;99.90;;;;;;5046180;28;20193;-67
2021/12/25 12:41:22;;;;;;;1.85;1.75;;;6.20;99.90;;;;;;5035799;28;20226;-67
2021/12/25 12:44:09;;;;;;;1.85;1.75;;;6.20;99.90;;;;;;5064547;28;20216;-66
2021/12/25 12:47:14;;;;;;;2.00;1.90;;;6.20;99.90;;;;;;5046963;28;20223;-66
2021/12/25 12:49:59;;;;;;;2.33;2.13;;;6.20;99.90;;;;;;4983731;28;20264;-68
2021/12/25 12:52:35;;;;;;;2.10;1.90;;;6.20;99.90;;;;;;4981712;28;20250;-66
2021/12/25 12:55:07;;;;;;;1.95;1.85;;;6.20;99.90;;;;;;5011417;28;20297;-67
2021/12/25 12:57:38;;;;;;;2.15;1.80;;;6.20;99.90;;;;;;5048875;28;20216;-68
2021/12/25 13:00:13;;;;;;;1.88;1.77;;;6.20;99.90;;;;;;5040597;28;20217;-70
2021/12/25 13:02:45;;;;;;;2.15;1.95;;;6.20;99.90;;;;;;5028707;28;20315;-66
2021/12/25 13:05:19;;;;;;;2.00;1.80;;;6.20;99.90;;;;;;5030177;28;20231;-66
2021/12/25 13:07:50;;;;;;;2.03;1.83;;;6.20;99.90;;;;;;5028132;28;20202;-66
2021/12/25 13:10:25;;;;;;;1.52;1.42;;;6.20;99.90;;;;;;5028874;28;20227;-66
2021/12/25 13:13:07;;;;;;;1.50;1.40;;;6.20;99.90;;;;;;5029067;28;20616;-66
2021/12/25 13:15:35;;;;;;;1.80;1.60;;;6.20;99.90;;;;;;5052745;28;20216;-67
2021/12/25 13:18:06;;;;;;;1.60;1.50;;;6.20;99.90;;;;;;5064168;28;20234;-67
2021/12/25 13:20:42;;;;;;;1.77;1.55;;;6.20;99.90;;;;;;5048498;28;20238;-67
2021/12/25 13:23:13;;;;;;;1.75;1.60;;;6.20;99.90;;;;;;5044632;28;20217;-67
2021/12/25 13:25:48;;;;;;;1.70;1.60;;;6.20;99.90;;;;;;5027082;28;20224;-67
2021/12/25 13:28:19;;;;;;;1.33;1.23;;;6.20;99.90;;;;;;5029246;28;20197;-67
2021/12/25 13:30:49;;;;;;;1.92;1.73;;;6.20;99.90;;;;;;5050978;28;20240;-66
2021/12/25 13:33:20;;;;;;;1.95;1.75;;;6.20;99.90;;;;;;5048123;28;20254;-67
2021/12/25 13:35:59;;;;;;;1.65;1.52;;;6.20;99.90;;;;;;5047531;28;20282;-66
2021/12/25 13:38:28;;;;;;;2.08;1.48;;;6.20;99.90;;;;;;5049054;28;20543;-67
2021/12/25 13:40:56;;;;;;;1.45;1.35;;;6.20;99.90;;;;;;5046891;28;20227;-67
2021/12/25 13:43:24;;;;;;;1.80;1.70;;;6.20;99.90;;;;;;5048015;28;20215;-66
2021/12/25 13:45:57;;;;;;;1.55;1.45;;;6.10;99.90;;;;;;5033567;28;20649;-66
2021/12/25 13:48:25;;;;;;;1.73;1.63;;;6.20;99.90;;;;;;5034291;28;20287;-66
2021/12/25 13:51:02;;;;;;;1.83;1.73;;;6.20;99.90;;;;;;5047491;28;20216;-66
2021/12/25 13:53:31;;;;;;;1.85;1.50;;;6.20;99.90;;;;;;5035707;28;20217;-66
2021/12/25 13:56:07;;;;;;;1.50;1.40;;;6.20;99.90;;;;;;5037995;28;20302;-66
2021/12/25 13:58:38;;;;;;;1.40;1.30;;;6.20;99.90;;;;;;5046478;28;20206;-67
2021/12/25 14:01:06;;;;;;;1.58;1.48;;;6.20;99.90;;;;;;5047353;28;20216;-67
2021/12/25 14:03:34;;;;;;;1.55;1.45;;;6.20;99.90;;;;;;5045006;28;20217;-66
2021/12/25 14:06:07;;;;;;;1.55;1.45;;;6.10;99.90;;;;;;5039248;28;20221;-66
2021/12/25 14:08:35;;;;;;;1.40;1.30;;;6.20;99.90;;;;;;5038626;28;20216;-65
2021/12/25 14:11:03;;;;;;;1.65;1.55;;;6.20;99.90;;;;;;5017922;28;20780;-66
2021/12/25 14:13:34;;;;;;;1.20;1.10;;;6.20;99.90;;;;;;5045099;28;20585;-67
2021/12/25 14:16:03;;;;;;;2.97;1.90;;;6.20;99.90;;;;;;5049873;28;20251;-66
2021/12/25 14:18:34;;;;;;;1.50;1.40;;;6.20;99.90;;;;;;5052399;28;20799;-66
2021/12/25 14:21:18;;;;;;;1.48;1.38;;;6.20;99.90;;;;;;5051290;28;20278;-66
2021/12/25 14:23:59;;;;;;;1.90;1.70;;;6.20;99.90;;;;;;5048699;28;20220;-69
2021/12/25 14:26:28;;;;;;;1.80;1.70;;;6.10;99.90;;;;;;5042885;28;20269;-66
2021/12/25 14:28:56;;;;;;;1.40;1.30;;;6.10;99.90;;;;;;5050842;28;20242;-67